createdAt,value
2024-04-24T00:02:08.735Z,9.80
2024-04-24T00:05:01.437Z,9.70
2024-04-24T00:07:51.842Z,9.60
2024-04-24T00:10:42.074Z,9.60
2024-04-24T00:13:34.995Z,9.50
2024-04-24T00:16:24.959Z,9.40
2024-04-24T00:19:15.099Z,9.40
2024-04-24T00:22:05.424Z,9.30
2024-04-24T00:24:55.654Z,9.20
2024-04-24T00:27:45.724Z,9.10
2024-04-24T00:30:38.389Z,9.00
2024-04-24T00:33:28.355Z,8.90
2024-04-24T00:36:18.461Z,8.80
2024-04-24T00:39:08.327Z,8.70
2024-04-24T00:41:58.584Z,8.70
2024-04-24T00:44:48.515Z,8.70
2024-04-24T00:47:42.865Z,8.60
2024-04-24T00:50:33.740Z,8.60
2024-04-24T00:53:23.967Z,8.60
2024-04-24T00:56:14.155Z,8.60
2024-04-24T00:59:04.935Z,8.50
2024-04-24T01:01:55.074Z,8.40
2024-04-24T01:04:47.958Z,8.30
2024-04-24T01:07:38.975Z,8.20
2024-04-24T01:10:29.186Z,8.10
2024-04-24T01:13:18.977Z,8.10
2024-04-24T01:16:17.425Z,8.00
2024-04-24T01:19:21.241Z,8.00
2024-04-24T01:22:42.323Z,8.00
2024-04-24T01:25:38.125Z,7.90
2024-04-24T01:28:30.791Z,7.90
2024-04-24T01:31:20.792Z,7.80
2024-04-24T01:34:10.857Z,7.80
2024-04-24T01:37:01.244Z,7.80
2024-04-24T01:39:51.100Z,7.70
2024-04-24T01:42:41.137Z,7.70
2024-04-24T01:45:33.851Z,7.70
2024-04-24T01:48:23.894Z,7.70
2024-04-24T01:51:14.148Z,7.60
2024-04-24T01:54:04.293Z,7.60
2024-04-24T01:56:54.494Z,7.50
2024-04-24T01:59:44.788Z,7.50
2024-04-24T02:02:37.683Z,7.50
2024-04-24T02:05:27.777Z,7.50
2024-04-24T02:08:18.079Z,7.50
2024-04-24T02:11:08.536Z,7.50
2024-04-24T02:13:58.752Z,7.40
2024-04-24T02:16:48.663Z,7.40
2024-04-24T02:19:42.527Z,7.40
2024-04-24T02:22:35.164Z,7.40
2024-04-24T02:25:39.122Z,7.40
2024-04-24T02:28:29.485Z,7.40
2024-04-24T02:31:19.522Z,7.30
2024-04-24T02:34:09.659Z,7.40
2024-04-24T02:37:02.485Z,7.40
2024-04-24T02:39:52.645Z,7.40
2024-04-24T02:42:42.727Z,7.50
2024-04-24T02:45:33.099Z,7.50
2024-04-24T02:48:23.405Z,7.50
2024-04-24T02:51:13.175Z,7.50
2024-04-24T02:54:05.946Z,7.60
2024-04-24T02:56:53.672Z,7.60
2024-04-24T02:59:44.704Z,7.60
2024-04-24T03:02:34.847Z,7.60
2024-04-24T03:05:24.963Z,7.70
2024-04-24T03:08:15.189Z,7.70
2024-04-24T03:11:08.801Z,7.70
2024-04-24T03:13:58.952Z,7.80
2024-04-24T03:16:49.235Z,7.80
2024-04-24T03:19:41.557Z,7.80
2024-04-24T03:22:34.039Z,7.90
2024-04-24T03:25:24.047Z,7.90
2024-04-24T03:28:17.006Z,7.90
2024-04-24T03:31:07.659Z,7.90
2024-04-24T03:33:57.467Z,7.90
2024-04-24T03:36:47.837Z,7.90
2024-04-24T03:39:37.632Z,7.90
2024-04-24T03:42:27.858Z,7.90
2024-04-24T03:45:20.820Z,7.90
2024-04-24T03:48:11.537Z,7.90
2024-04-24T03:51:01.725Z,7.90
2024-04-24T03:53:51.688Z,7.90
2024-04-24T03:56:42.277Z,7.90
2024-04-24T03:59:33.039Z,7.80
2024-04-24T04:02:26.391Z,7.80
2024-04-24T04:05:16.934Z,7.80
2024-04-24T04:08:07.253Z,7.80
2024-04-24T04:10:59.974Z,7.70
2024-04-24T04:13:50.047Z,7.70
2024-04-24T04:16:40.293Z,7.70
2024-04-24T04:19:33.133Z,7.60
2024-04-24T04:22:23.317Z,7.50
2024-04-24T04:25:13.238Z,7.50
2024-04-24T04:28:03.421Z,7.50
2024-04-24T04:30:54.089Z,7.40
2024-04-24T04:33:46.992Z,7.40
2024-04-24T04:36:39.743Z,7.40
2024-04-24T04:39:29.873Z,7.40
2024-04-24T04:42:20.110Z,7.50
2024-04-24T04:45:11.764Z,7.60
2024-04-24T04:48:01.898Z,7.60
2024-04-24T04:50:51.819Z,7.70
2024-04-24T04:53:44.877Z,7.70
2024-04-24T04:56:35.136Z,7.70
2024-04-24T04:59:25.351Z,7.80
2024-04-24T05:02:15.709Z,7.80
2024-04-24T05:05:05.929Z,7.80
2024-04-24T05:07:55.663Z,7.80
2024-04-24T05:10:48.276Z,7.90
2024-04-24T05:13:38.601Z,8.00
2024-04-24T05:16:28.622Z,8.10
2024-04-24T05:19:18.893Z,8.20
2024-04-24T05:22:10.486Z,8.30
2024-04-24T05:25:00.422Z,8.40
2024-04-24T05:28:09.416Z,8.60
2024-04-24T05:30:59.490Z,8.70
2024-04-24T05:33:49.874Z,8.70
2024-04-24T05:36:40.177Z,8.80
2024-04-24T05:39:30.424Z,8.80
2024-04-24T05:42:20.928Z,8.90
2024-04-24T05:45:13.490Z,9.00
2024-04-24T05:48:03.999Z,9.20
2024-04-24T05:50:54.090Z,9.30
2024-04-24T05:53:44.294Z,9.50
2024-04-24T05:56:34.535Z,9.60
2024-04-24T05:59:24.988Z,9.70
2024-04-24T06:02:17.536Z,9.90
2024-04-24T06:05:08.537Z,10.10
2024-04-24T06:07:59.949Z,10.30
2024-04-24T06:10:50.030Z,10.50
2024-04-24T06:13:40.121Z,10.70
2024-04-24T06:16:30.284Z,10.90
2024-04-24T06:19:23.288Z,11.10
2024-04-24T06:22:13.223Z,11.30
2024-04-24T06:25:03.540Z,11.40
2024-04-24T06:27:53.346Z,11.60
2024-04-24T06:30:46.342Z,11.70
2024-04-24T06:33:37.078Z,11.90
2024-04-24T06:36:29.862Z,12.10
2024-04-24T06:39:20.017Z,12.30
2024-04-24T06:42:13.390Z,12.40
2024-04-24T06:45:03.141Z,12.50
2024-04-24T06:48:06.069Z,12.60
2024-04-24T06:50:55.801Z,12.70
2024-04-24T06:53:48.487Z,12.90
2024-04-24T06:56:40.575Z,13.20
2024-04-24T06:59:31.200Z,13.50
2024-04-24T07:02:22.028Z,13.80
2024-04-24T07:05:12.458Z,14.10
2024-04-24T07:08:04.111Z,14.40
2024-04-24T07:10:58.097Z,14.70
2024-04-24T07:13:48.628Z,15.20
2024-04-24T07:16:41.409Z,15.60
2024-04-24T07:19:31.503Z,16.00
2024-04-24T07:22:21.945Z,16.40
2024-04-24T07:25:12.020Z,16.80
2024-04-24T07:28:04.792Z,17.20
2024-04-24T07:30:57.440Z,17.70
2024-04-24T07:33:47.335Z,18.10
2024-04-24T07:36:37.481Z,18.60
2024-04-24T07:39:27.689Z,19.00
2024-04-24T07:42:18.026Z,19.50
2024-04-24T07:45:11.569Z,19.90
2024-04-24T07:48:01.499Z,20.40
2024-04-24T07:50:51.599Z,20.90
2024-04-24T07:53:41.756Z,21.40
2024-04-24T07:56:31.946Z,21.90
2024-04-24T07:59:21.811Z,22.30
2024-04-24T08:02:14.593Z,22.50
2024-04-24T08:05:04.406Z,22.80
2024-04-24T08:07:54.348Z,22.90
2024-04-24T08:10:44.727Z,23.00
2024-04-24T08:13:34.425Z,23.10
2024-04-24T08:16:24.700Z,23.10
2024-04-24T08:19:17.776Z,23.10
2024-04-24T08:22:07.901Z,23.00
2024-04-24T08:24:58.062Z,22.70
2024-04-24T08:27:47.812Z,22.40
2024-04-24T08:30:37.756Z,22.00
2024-04-24T08:33:28.153Z,21.70
2024-04-24T08:36:20.645Z,21.20
2024-04-24T08:39:12.422Z,20.90
2024-04-24T08:42:03.075Z,20.50
2024-04-24T08:44:54.227Z,20.30
2024-04-24T08:47:44.231Z,20.10
2024-04-24T08:50:35.119Z,20.00
2024-04-24T08:53:33.297Z,20.00
2024-04-24T08:56:28.080Z,20.00
2024-04-24T08:59:24.648Z,20.00
2024-04-24T09:02:15.835Z,20.00
2024-04-24T09:05:07.744Z,20.00
2024-04-24T09:07:59.122Z,19.90
2024-04-24T09:10:53.589Z,19.80
2024-04-24T09:13:44.450Z,19.50
2024-04-24T09:16:38.972Z,19.30
2024-04-24T09:19:29.247Z,19.00
2024-04-24T09:22:23.063Z,18.70
2024-04-24T09:25:13.196Z,18.50
2024-04-24T09:28:05.960Z,18.40
2024-04-24T09:30:58.504Z,18.20
2024-04-24T09:33:48.668Z,18.00
2024-04-24T09:36:39.183Z,17.70
2024-04-24T09:39:31.944Z,17.50
2024-04-24T09:42:22.348Z,17.20
2024-04-24T09:45:15.521Z,17.10
2024-04-24T09:48:07.758Z,16.90
2024-04-24T09:50:58.164Z,16.80
2024-04-24T09:53:48.371Z,16.80
2024-04-24T09:56:47.136Z,16.70
2024-04-24T10:03:15.408Z,16.80
2024-04-24T10:06:07.582Z,16.80
2024-04-24T10:08:58.318Z,16.80
2024-04-24T10:12:03.092Z,17.00
2024-04-24T10:15:09.272Z,17.10
2024-04-24T10:17:59.652Z,17.30
2024-04-24T10:20:56.664Z,17.60
2024-04-24T10:23:49.823Z,17.80
2024-04-24T10:26:41.315Z,17.90
2024-04-24T10:29:32.146Z,17.90
2024-04-24T10:32:25.093Z,17.90
2024-04-24T10:35:16.271Z,17.90
2024-04-24T10:38:11.589Z,17.70
2024-04-24T10:41:01.805Z,17.50
2024-04-24T10:43:53.088Z,17.40
2024-04-24T10:46:44.077Z,17.20
2024-04-24T10:49:33.748Z,17.20
2024-04-24T10:52:23.530Z,17.20
2024-04-24T10:55:20.488Z,17.30
2024-04-24T10:58:24.525Z,17.40
2024-04-24T11:01:22.104Z,17.60
2024-04-24T11:04:16.275Z,17.90
2024-04-24T11:07:08.324Z,18.30
2024-04-24T11:10:01.801Z,18.80
2024-04-24T11:12:54.567Z,19.40
2024-04-24T11:15:54.214Z,20.10
2024-04-24T11:18:48.983Z,20.60
2024-04-24T11:21:38.852Z,21.10
2024-04-24T11:24:32.606Z,21.50
2024-04-24T11:27:28.526Z,21.70
2024-04-24T11:30:23.490Z,21.90
2024-04-24T11:33:13.957Z,22.00
2024-04-24T11:36:04.602Z,22.00
2024-04-24T11:38:55.002Z,22.00
2024-04-24T11:41:45.689Z,21.90
2024-04-24T11:44:36.976Z,21.70
2024-04-24T11:47:30.006Z,21.30
2024-04-24T11:50:22.714Z,20.90
2024-04-24T11:53:13.721Z,20.50
2024-04-24T11:56:04.476Z,20.00
2024-04-24T11:58:55.132Z,19.50
2024-04-24T12:01:46.795Z,19.10
2024-04-24T12:04:48.514Z,18.80
2024-04-24T12:07:38.905Z,18.40
2024-04-24T12:10:28.905Z,18.20
2024-04-24T12:13:19.204Z,17.90
2024-04-24T12:16:09.853Z,17.70
2024-04-24T12:19:00.323Z,17.60
2024-04-24T12:21:53.276Z,17.50
2024-04-24T12:24:43.561Z,17.40
2024-04-24T12:27:33.895Z,17.40
2024-04-24T12:30:23.806Z,17.40
2024-04-24T12:33:14.121Z,17.40
2024-04-24T12:36:03.966Z,17.40
2024-04-24T12:38:56.658Z,17.40
2024-04-24T12:41:46.559Z,17.40
2024-04-24T12:44:37.047Z,17.50
2024-04-24T12:47:27.694Z,17.50
2024-04-24T12:50:19.192Z,17.60
2024-04-24T12:53:08.928Z,17.80
2024-04-24T12:56:01.510Z,17.90
2024-04-24T12:58:51.231Z,18.10
2024-04-24T13:01:41.618Z,18.30
2024-04-24T13:04:32.130Z,18.40
2024-04-24T13:07:21.991Z,18.40
2024-04-24T13:10:12.343Z,18.50
2024-04-24T13:13:04.785Z,18.50
2024-04-24T13:15:54.664Z,18.50
2024-04-24T13:18:45.172Z,18.40
2024-04-24T13:21:35.364Z,18.10
2024-04-24T13:24:25.344Z,17.90
2024-04-24T13:27:15.419Z,17.60
2024-04-24T13:30:11.195Z,17.30
2024-04-24T13:33:01.174Z,17.10
2024-04-24T13:35:52.548Z,16.90
2024-04-24T13:38:43.445Z,16.70
2024-04-24T13:41:36.525Z,16.60
2024-04-24T13:44:31.223Z,16.50
2024-04-24T13:47:23.894Z,16.40
2024-04-24T13:50:14.997Z,16.40
2024-04-24T13:53:05.177Z,16.40
2024-04-24T13:55:55.038Z,16.30
2024-04-24T13:58:45.201Z,16.30
2024-04-24T14:01:35.529Z,16.30
2024-04-24T14:04:28.514Z,16.30
2024-04-24T14:07:18.755Z,16.40
2024-04-24T14:10:09.876Z,16.40
2024-04-24T14:13:00.171Z,16.40
2024-04-24T14:15:50.068Z,16.40
2024-04-24T14:18:40.203Z,16.40
2024-04-24T14:21:33.107Z,16.40
2024-04-24T14:24:23.339Z,16.40
2024-04-24T14:27:13.302Z,16.40
2024-04-24T14:30:03.479Z,16.40
2024-04-24T14:32:53.901Z,16.50
2024-04-24T14:35:44.083Z,16.40
2024-04-24T14:38:36.697Z,16.50
2024-04-24T14:41:27.071Z,16.50
2024-04-24T14:44:17.382Z,16.50
2024-04-24T14:47:07.338Z,16.50
2024-04-24T14:49:57.430Z,16.50
2024-04-24T14:52:47.983Z,16.50
2024-04-24T14:55:42.541Z,16.50
2024-04-24T14:58:32.710Z,16.60
2024-04-24T15:01:22.729Z,16.60
2024-04-24T15:04:12.983Z,16.70
2024-04-24T15:07:12.059Z,16.70
2024-04-24T15:10:02.184Z,16.80
2024-04-24T15:12:54.791Z,16.80
2024-04-24T15:15:48.432Z,16.70
2024-04-24T15:18:38.784Z,16.70
2024-04-24T15:21:28.739Z,16.60
2024-04-24T15:24:19.090Z,16.50
2024-04-24T15:27:09.565Z,16.50
2024-04-24T15:30:02.140Z,16.50
2024-04-24T15:32:52.255Z,16.40
2024-04-24T15:35:42.233Z,16.40
2024-04-24T15:38:32.362Z,16.30
2024-04-24T15:41:22.481Z,16.30
2024-04-24T15:44:12.598Z,16.30
2024-04-24T15:47:05.593Z,16.20
2024-04-24T15:49:56.044Z,16.20
2024-04-24T15:52:46.448Z,16.10
2024-04-24T15:55:36.446Z,16.00
2024-04-24T15:58:27.369Z,15.90
2024-04-24T16:01:17.634Z,15.70
2024-04-24T16:04:10.206Z,15.50
2024-04-24T16:06:59.914Z,15.20
2024-04-24T16:09:50.264Z,15.00
2024-04-24T16:12:40.071Z,14.80
2024-04-24T16:15:30.278Z,14.70
2024-04-24T16:18:21.614Z,14.60
2024-04-24T16:21:15.402Z,14.60
2024-04-24T16:24:05.408Z,14.50
2024-04-24T16:26:55.428Z,14.50
2024-04-24T16:29:48.506Z,14.40
2024-04-24T16:32:40.007Z,14.30
2024-04-24T16:35:30.243Z,14.20
2024-04-24T16:38:22.999Z,14.10
2024-04-24T16:41:20.534Z,14.00
2024-04-24T16:44:11.470Z,13.80
2024-04-24T16:47:01.957Z,13.80
2024-04-24T16:49:52.377Z,13.80
2024-04-24T16:52:42.132Z,13.80
2024-04-24T16:55:35.239Z,13.80
2024-04-24T16:58:25.145Z,13.70
2024-04-24T17:01:16.803Z,13.70
2024-04-24T17:04:07.340Z,13.60
2024-04-24T17:06:57.555Z,13.50
2024-04-24T17:09:47.806Z,13.40
2024-04-24T17:12:40.347Z,13.20
2024-04-24T17:15:30.192Z,13.10
2024-04-24T17:18:20.447Z,12.90
2024-04-24T17:21:10.631Z,12.80
2024-04-24T17:24:01.821Z,12.60
2024-04-24T17:26:52.281Z,12.50
2024-04-24T17:29:45.199Z,12.40
2024-04-24T17:32:35.196Z,12.30
2024-04-24T17:35:26.109Z,12.10
2024-04-24T17:38:16.371Z,12.00
2024-04-24T17:41:06.931Z,11.90
2024-04-24T17:43:57.033Z,11.80
2024-04-24T17:46:49.930Z,11.80
2024-04-24T17:49:40.109Z,11.70
2024-04-24T17:52:30.315Z,11.60
2024-04-24T17:55:20.501Z,11.60
2024-04-24T17:58:10.687Z,11.50
2024-04-24T18:01:00.737Z,11.40
2024-04-24T18:03:53.530Z,11.30
2024-04-24T18:06:43.927Z,11.30
2024-04-24T18:09:33.950Z,11.30
2024-04-24T18:12:23.881Z,11.10
2024-04-24T18:15:14.400Z,11.10
2024-04-24T18:18:04.365Z,11.00
2024-04-24T18:20:57.033Z,10.90
2024-04-24T18:23:47.034Z,10.80
2024-04-24T18:26:37.068Z,10.70
2024-04-24T18:29:27.401Z,10.70
2024-04-24T18:32:17.492Z,10.60
2024-04-24T18:35:08.444Z,10.50
2024-04-24T18:38:01.308Z,10.50
2024-04-24T18:40:51.010Z,10.40
2024-04-24T18:43:42.984Z,10.30
2024-04-24T18:46:33.001Z,10.30
2024-04-24T18:49:23.180Z,10.10
2024-04-24T18:52:13.363Z,10.10
2024-04-24T18:55:06.087Z,10.00
2024-04-24T18:57:56.639Z,10.00
2024-04-24T19:00:47.177Z,9.90
2024-04-24T19:03:37.414Z,9.90
2024-04-24T19:06:27.540Z,9.80
2024-04-24T19:09:18.267Z,9.80
2024-04-24T19:12:11.636Z,9.70
2024-04-24T19:15:01.429Z,9.70
2024-04-24T19:17:51.275Z,9.70
2024-04-24T19:20:42.177Z,9.60
2024-04-24T19:23:32.062Z,9.60
2024-04-24T19:26:23.226Z,9.50
2024-04-24T19:29:15.672Z,9.50
2024-04-24T19:32:06.069Z,9.50
2024-04-24T19:34:58.228Z,9.40
2024-04-24T19:37:48.385Z,9.40
2024-04-24T19:40:38.291Z,9.30
2024-04-24T19:43:28.596Z,9.30
2024-04-24T19:46:21.385Z,9.20
2024-04-24T19:49:11.770Z,9.20
2024-04-24T19:52:01.843Z,9.30
2024-04-24T19:54:51.710Z,9.20
2024-04-24T19:57:41.508Z,9.20
2024-04-24T20:00:31.786Z,9.20
2024-04-24T20:03:24.250Z,9.20
2024-04-24T20:06:15.687Z,9.20
2024-04-24T20:09:06.461Z,9.20
2024-04-24T20:11:56.751Z,9.20
2024-04-24T20:14:46.983Z,9.20
2024-04-24T20:17:37.724Z,9.20
2024-04-24T20:20:30.587Z,9.20
2024-04-24T20:23:20.388Z,9.30
2024-04-24T20:26:21.310Z,9.30
2024-04-24T20:29:11.252Z,9.30
2024-04-24T20:32:01.530Z,9.30
2024-04-24T20:34:51.722Z,9.30
2024-04-24T20:37:47.457Z,9.30
2024-04-24T20:40:37.221Z,9.20
2024-04-24T20:43:27.383Z,9.20
2024-04-24T20:46:17.826Z,9.20
2024-04-24T20:49:07.886Z,9.20
2024-04-24T20:51:58.125Z,9.20
2024-04-24T20:54:51.426Z,9.10
2024-04-24T20:57:41.498Z,9.20
2024-04-24T21:00:31.457Z,9.10
2024-04-24T21:03:25.932Z,9.10
2024-04-24T21:06:17.267Z,9.00
2024-04-24T21:09:08.268Z,9.00
2024-04-24T21:12:01.353Z,9.00
2024-04-24T21:14:53.008Z,9.00
2024-04-24T21:17:44.560Z,8.90
2024-04-24T21:20:34.664Z,8.90
2024-04-24T21:23:24.513Z,8.90
2024-04-24T21:26:16.736Z,8.90
2024-04-24T21:29:10.327Z,8.80
2024-04-24T21:32:00.357Z,8.80
2024-04-24T21:34:50.182Z,8.70
2024-04-24T21:37:40.343Z,8.60
2024-04-24T21:40:30.806Z,8.60
2024-04-24T21:43:21.456Z,8.50
2024-04-24T21:46:15.490Z,8.50
2024-04-24T21:49:05.351Z,8.50
2024-04-24T21:51:55.566Z,8.40
2024-04-24T21:54:45.830Z,8.40
2024-04-24T21:57:35.986Z,8.30
2024-04-24T22:00:26.131Z,8.30
2024-04-24T22:03:18.559Z,8.20
2024-04-24T22:06:09.118Z,8.20
2024-04-24T22:08:59.112Z,8.10
2024-04-24T22:11:49.910Z,8.10
2024-04-24T22:14:40.099Z,8.00
2024-04-24T22:17:30.142Z,8.00
2024-04-24T22:20:23.267Z,7.90
2024-04-24T22:23:14.707Z,7.90
2024-04-24T22:26:04.771Z,7.80
2024-04-24T22:28:54.761Z,7.80
2024-04-24T22:31:44.755Z,7.70
2024-04-24T22:34:35.720Z,7.60
2024-04-24T22:37:31.017Z,7.70
2024-04-24T22:40:21.120Z,7.50
2024-04-24T22:43:11.028Z,7.50
2024-04-24T22:46:01.021Z,7.50
2024-04-24T22:48:51.178Z,7.50
2024-04-24T22:51:40.846Z,7.30
2024-04-24T22:54:33.617Z,7.30
2024-04-24T22:57:23.603Z,7.30
2024-04-24T23:00:20.546Z,7.30
2024-04-24T23:03:10.766Z,7.20
2024-04-24T23:06:00.695Z,7.20
2024-04-24T23:08:50.474Z,7.20
2024-04-24T23:11:43.252Z,7.10
2024-04-24T23:14:33.724Z,7.10
2024-04-24T23:17:24.152Z,7.10
2024-04-24T23:20:14.552Z,7.10
2024-04-24T23:23:04.712Z,7.10
2024-04-24T23:25:54.600Z,7.10
2024-04-24T23:28:47.085Z,7.10
2024-04-24T23:31:37.197Z,7.10
2024-04-24T23:34:27.308Z,7.10
2024-04-24T23:37:17.055Z,7.10
2024-04-24T23:40:07.043Z,7.10
2024-04-24T23:42:56.877Z,7.20
2024-04-24T23:45:49.590Z,7.20
2024-04-24T23:48:39.633Z,7.20
2024-04-24T23:51:29.516Z,7.20
2024-04-24T23:54:19.556Z,7.10
2024-04-24T23:57:09.804Z,7.10
2024-04-24T23:59:59.842Z,7.10
